Time;durP1;ratioP1;P1;durP2;ratioP2;P2;SDS_P1;SDS_P2;PMS_P1;PMS_P2;Temp;Humidity;BMP_temperature;BMP_pressure;BME280_temperature;BME280_humidity;BME280_pressure;Samples;Min_cycle;Max_cycle;Signal;HPM_P1;HPM_P2
2023/06/29 00:00:28;;;;;;;1.60;1.10;;;;;;;11.34;100.00;91010.72;5031794;28;20518;-67
2023/06/29 00:02:54;;;;;;;0.80;0.80;;;;;;;11.25;100.00;91025.94;5031655;28;20029;-67
2023/06/29 00:05:21;;;;;;;1.75;1.65;;;;;;;11.25;100.00;91023.25;5031972;28;20385;-67
2023/06/29 00:07:46;;;;;;;1.83;1.73;;;;;;;11.24;100.00;91029.69;5031874;28;20036;-67
2023/06/29 00:10:13;;;;;;;1.05;1.00;;;;;;;11.14;100.00;91032.63;5031735;28;20116;-67
2023/06/29 00:12:40;;;;;;;1.75;1.65;;;;;;;11.09;100.00;91026.34;5031452;28;20036;-67
2023/06/29 00:15:06;;;;;;;2.00;1.42;;;;;;;11.03;100.00;91024.91;5031936;28;20072;-67
2023/06/29 00:17:32;;;;;;;1.35;1.35;;;;;;;11.00;100.00;91036.19;5031732;28;20439;-67
2023/06/29 00:20:00;;;;;;;2.05;1.00;;;;;;;11.01;100.00;91026.31;5031608;28;20476;-67
2023/06/29 00:22:25;;;;;;;0.98;0.98;;;;;;;11.08;100.00;91019.47;5031437;28;20439;-67
2023/06/29 00:24:59;;;;;;;6.35;1.20;;;;;;;10.95;100.00;91020.34;5031461;28;20085;-67
2023/06/29 00:27:24;;;;;;;;;;;;;;;10.97;100.00;91058.09;5032132;28;20108;-67
2023/06/29 00:29:50;;;;;;;1.48;1.40;;;;;;;11.08;100.00;91062.06;5031758;28;19945;-67
2023/06/29 00:32:15;;;;;;;1.55;1.45;;;;;;;11.12;100.00;91056.09;5033119;28;20025;-67
2023/06/29 00:34:41;;;;;;;0.73;0.73;;;;;;;11.08;100.00;91055.94;5035109;28;20029;-67
2023/06/29 00:37:06;;;;;;;1.40;1.30;;;;;;;11.08;100.00;91038.09;5035022;28;20033;-67
2023/06/29 00:39:34;;;;;;;1.00;1.00;;;;;;;11.01;100.00;91028.97;5035353;28;20033;-67
2023/06/29 00:41:59;;;;;;;1.00;1.00;;;;;;;11.02;100.00;91019.88;5035258;28;20033;-67
2023/06/29 00:44:25;;;;;;;1.30;1.25;;;;;;;11.10;100.00;91009.28;5034945;28;20026;-67
2023/06/29 00:46:52;;;;;;;1.83;1.42;;;;;;;11.13;100.00;91031.84;5035015;28;20026;-67
2023/06/29 00:49:21;;;;;;;1.48;1.02;;;;;;;11.12;100.00;91019.63;5033280;28;20041;-67
2023/06/29 00:51:49;;;;;;;0.82;0.82;;;;;;;10.84;100.00;91024.38;5015156;28;20030;-67
2023/06/29 00:54:17;;;;;;;0.80;0.80;;;;;;;11.00;100.00;91028.19;5015218;28;20411;-67
2023/06/29 00:56:43;;;;;;;1.25;1.25;;;;;;;11.03;100.00;91037.44;5014946;28;20022;-67
2023/06/29 00:59:08;;;;;;;0.80;0.80;;;;;;;10.98;100.00;91027.72;5014984;28;20040;-67
2023/06/29 01:01:34;;;;;;;0.98;0.98;;;;;;;11.02;100.00;91023.34;5015056;28;20040;-67
2023/06/29 01:03:59;;;;;;;0.77;0.77;;;;;;;11.15;100.00;91010.22;5015150;28;20112;-67
2023/06/29 01:06:30;;;;;;;1.75;1.65;;;;;;;11.16;100.00;91020.56;5014745;28;20052;-67
2023/06/29 01:09:04;;;;;;;1.58;1.45;;;;;;;11.22;100.00;91018.56;5014830;28;20057;-67
2023/06/29 01:11:32;;;;;;;1.25;1.23;;;;;;;11.30;100.00;91015.13;5014946;28;20057;-67
2023/06/29 01:14:01;;;;;;;1.08;1.05;;;;;;;11.29;100.00;91024.22;5014637;28;20109;-67
2023/06/29 01:16:32;;;;;;;16.27;2.13;;;;;;;11.36;100.00;91032.50;5014779;28;20026;-67
2023/06/29 01:18:59;;;;;;;1.00;1.00;;;;;;;11.42;100.00;91028.63;5014896;28;20038;-67
2023/06/29 01:21:27;;;;;;;1.90;1.80;;;;;;;11.31;100.00;91024.69;5014545;28;20030;-67
2023/06/29 01:23:55;;;;;;;1.95;1.75;;;;;;;11.32;100.00;91026.25;5014473;28;20025;-67
2023/06/29 01:26:22;;;;;;;1.00;1.00;;;;;;;11.13;100.00;91010.53;5014285;28;20022;-67
2023/06/29 01:28:49;;;;;;;1.63;1.17;;;;;;;11.29;100.00;91030.31;5014338;28;20420;-67
2023/06/29 01:31:15;;;;;;;1.00;1.00;;;;;;;11.30;100.00;91020.44;5014341;28;20114;-67
2023/06/29 01:33:40;;;;;;;0.80;0.80;;;;;;;11.36;100.00;91030.66;5014116;28;20482;-67
2023/06/29 01:36:24;;;;;;;0.98;0.98;;;;;;;11.32;100.00;91032.34;5014224;28;20045;-67
2023/06/29 01:38:59;;;;;;;1.65;1.55;;;;;;;11.39;100.00;91032.69;5014180;28;20026;-67
2023/06/29 01:41:26;;;;;;;1.00;1.00;;;;;;;11.33;100.00;91033.13;5014647;28;20087;-67
2023/06/29 01:43:52;;;;;;;1.20;1.20;;;;;;;11.33;100.00;91022.47;5168736;22;20467;-67
2023/06/29 01:46:19;;;;;;;1.95;1.67;;;;;;;11.27;100.00;91027.19;5034063;28;20026;-67
2023/06/29 01:48:46;;;;;;;1.23;1.13;;;;;;;11.32;100.00;91024.38;5032572;28;20600;-67
2023/06/29 01:51:12;;;;;;;1.13;1.13;;;;;;;11.29;100.00;91016.22;5033764;28;20029;-67
2023/06/29 01:53:37;;;;;;;1.17;1.08;;;;;;;11.43;100.00;91019.53;5033637;28;20494;-67
2023/06/29 01:56:03;;;;;;;1.40;1.30;;;;;;;11.44;100.00;91009.66;5033745;28;20021;-67
2023/06/29 01:58:28;;;;;;;0.80;0.80;;;;;;;11.54;100.00;91009.38;5033617;28;20033;-67
2023/06/29 02:00:54;;;;;;;1.30;1.30;;;;;;;11.50;100.00;91003.88;5033748;28;20022;-67
2023/06/29 02:03:20;;;;;;;2.45;1.55;;;;;;;11.51;100.00;91005.44;5033435;28;20056;-67
2023/06/29 02:05:45;;;;;;;1.55;1.45;;;;;;;11.50;100.00;91000.41;5033465;28;20021;-67
2023/06/29 02:08:11;;;;;;;0.80;0.80;;;;;;;11.52;100.00;90995.56;5033304;28;20021;-67
2023/06/29 02:10:36;;;;;;;2.05;1.30;;;;;;;11.49;100.00;90996.97;5033273;28;20029;-67
2023/06/29 02:13:02;;;;;;;1.20;1.10;;;;;;;11.50;100.00;90993.22;5033360;28;20128;-67
2023/06/29 02:15:27;;;;;;;3.35;1.63;;;;;;;11.64;100.00;90993.06;5033147;28;20045;-67
2023/06/29 02:17:53;;;;;;;1.60;1.50;;;;;;;11.73;100.00;91001.06;5033018;28;20030;-67
2023/06/29 02:20:18;;;;;;;0.90;0.90;;;;;;;11.81;100.00;90997.66;5033163;28;20101;-67
2023/06/29 02:22:44;;;;;;;1.20;1.20;;;;;;;11.89;100.00;90994.22;5033145;28;20038;-67
2023/06/29 02:25:14;;;;;;;1.05;1.05;;;;;;;11.93;100.00;90998.59;5033265;28;20057;-67
2023/06/29 02:27:39;;;;;;;1.00;1.00;;;;;;;11.92;100.00;90989.03;5032847;28;20036;-67
2023/06/29 02:30:06;;;;;;;1.00;1.00;;;;;;;12.07;100.00;90979.75;5033460;28;20027;-67
2023/06/29 02:32:31;;;;;;;0.80;0.80;;;;;;;12.10;100.00;90981.78;5032845;28;20025;-67
2023/06/29 02:34:56;;;;;;;1.08;1.08;;;;;;;12.17;100.00;91000.78;5032826;28;20052;-67
2023/06/29 02:37:22;;;;;;;1.13;1.05;;;;;;;12.19;100.00;91003.13;5032697;28;20116;-67
2023/06/29 02:39:47;;;;;;;0.80;0.80;;;;;;;12.16;100.00;90993.88;5032691;28;20415;-67
2023/06/29 02:42:12;;;;;;;1.17;1.17;;;;;;;12.17;100.00;90998.13;5032615;28;20034;-68
2023/06/29 02:44:38;;;;;;;1.13;1.13;;;;;;;12.14;100.00;90996.06;5032805;28;20045;-67
2023/06/29 02:47:03;;;;;;;1.10;1.10;;;;;;;12.17;100.00;90994.66;5032384;28;20041;-67
2023/06/29 02:49:29;;;;;;;1.30;1.20;;;;;;;12.15;100.00;91003.00;5032860;28;20060;-67
2023/06/29 02:51:54;;;;;;;0.85;0.85;;;;;;;12.12;100.00;91006.25;5032521;28;20462;-67
2023/06/29 02:54:19;;;;;;;1.55;1.48;;;;;;;12.14;100.00;91006.72;5032322;28;20034;-67
2023/06/29 02:56:45;;;;;;;0.80;0.80;;;;;;;12.15;100.00;91010.16;5032376;28;20175;-67
2023/06/29 02:59:10;;;;;;;0.88;0.88;;;;;;;12.13;100.00;91010.50;5032449;28;20054;-67
2023/06/29 03:01:35;;;;;;;2.63;1.35;;;;;;;12.16;100.00;91012.56;5032483;28;20032;-67
2023/06/29 03:04:01;;;;;;;1.05;1.05;;;;;;;12.14;100.00;91014.72;5032240;28;20033;-67
2023/06/29 03:06:26;;;;;;;0.90;0.90;;;;;;;12.15;100.00;91027.00;5032427;28;20108;-67
2023/06/29 03:08:52;;;;;;;1.17;1.15;;;;;;;12.20;100.00;91037.47;5032180;28;20473;-67
2023/06/29 03:11:17;;;;;;;1.08;1.08;;;;;;;12.27;100.00;91029.78;5032064;28;20029;-67
2023/06/29 03:13:42;;;;;;;0.90;0.90;;;;;;;12.28;100.00;91022.56;5032038;28;20029;-67
2023/06/29 03:16:09;;;;;;;0.95;0.95;;;;;;;12.25;100.00;91015.97;5032663;28;20021;-67
2023/06/29 03:18:34;;;;;;;1.17;1.17;;;;;;;12.28;100.00;91012.66;5032055;28;20082;-67
2023/06/29 03:21:01;;;;;;;1.27;1.27;;;;;;;12.32;100.00;91022.72;5032063;28;20029;-67
2023/06/29 03:23:27;;;;;;;1.52;1.42;;;;;;;12.48;100.00;91026.47;5031854;28;20040;-67
2023/06/29 03:25:52;;;;;;;2.78;1.35;;;;;;;12.47;100.00;91014.22;5032420;28;20025;-67
2023/06/29 03:28:17;;;;;;;1.00;1.00;;;;;;;12.51;100.00;91028.50;5031995;28;20033;-67
2023/06/29 03:30:43;;;;;;;0.80;0.80;;;;;;;12.62;100.00;91032.38;5031947;28;20454;-67
2023/06/29 03:33:08;;;;;;;0.80;0.80;;;;;;;12.63;100.00;91039.31;5031908;28;20032;-67
2023/06/29 03:35:34;;;;;;;1.30;1.30;;;;;;;12.60;100.00;91026.56;5031887;28;20506;-67
2023/06/29 03:37:59;;;;;;;0.80;0.80;;;;;;;12.55;100.00;91030.22;5032030;28;20030;-67
2023/06/29 03:40:24;;;;;;;1.67;1.50;;;;;;;12.62;100.00;91037.72;5031820;28;20076;-67
2023/06/29 03:42:50;;;;;;;1.10;1.05;;;;;;;12.70;100.00;91036.13;5031483;28;20088;-67
2023/06/29 03:45:15;;;;;;;1.30;1.27;;;;;;;12.72;100.00;91041.94;5031841;28;20104;-67
2023/06/29 03:47:41;;;;;;;1.52;1.42;;;;;;;12.53;100.00;91040.41;5031630;28;20483;-67
2023/06/29 03:50:06;;;;;;;1.35;1.30;;;;;;;12.34;100.00;91031.97;5031692;28;20025;-67
2023/06/29 03:52:32;;;;;;;1.20;1.20;;;;;;;12.58;100.00;91034.13;5032098;28;20103;-67
2023/06/29 03:54:57;;;;;;;1.83;1.73;;;;;;;12.82;100.00;91034.38;5031708;28;20411;-67
2023/06/29 03:57:22;;;;;;;1.00;1.00;;;;;;;12.92;100.00;91038.56;5031666;28;20026;-67
2023/06/29 03:59:48;;;;;;;1.10;1.10;;;;;;;13.00;100.00;91047.69;5031636;28;20475;-67
2023/06/29 04:02:13;;;;;;;1.00;1.00;;;;;;;12.98;100.00;91049.88;5031753;28;20033;-67
2023/06/29 04:04:38;;;;;;;2.08;1.98;;;;;;;13.05;100.00;91048.28;5031669;28;20522;-67
2023/06/29 04:07:04;;;;;;;3.67;3.20;;;;;;;13.33;100.00;91050.56;5033232;28;20017;-67
2023/06/29 04:09:29;;;;;;;0.82;0.82;;;;;;;13.47;100.00;91057.25;5035622;28;20476;-67
2023/06/29 04:11:55;;;;;;;1.33;1.23;;;;;;;13.60;100.00;91057.34;5035478;28;20034;-67
2023/06/29 04:14:20;;;;;;;0.98;0.98;;;;;;;13.64;100.00;91056.38;5035699;28;20033;-67
2023/06/29 04:16:46;;;;;;;3.25;1.38;;;;;;;13.64;100.00;91052.91;5035485;28;20468;-67
2023/06/29 04:19:11;;;;;;;1.20;1.20;;;;;;;13.75;100.00;91051.44;5035644;28;20026;-67
2023/06/29 04:21:36;;;;;;;1.45;1.35;;;;;;;13.78;100.00;91056.13;5035426;28;20053;-67
2023/06/29 04:24:02;;;;;;;1.25;1.25;;;;;;;13.72;100.00;91052.06;5035186;28;20495;-67
2023/06/29 04:26:27;;;;;;;2.10;1.45;;;;;;;13.77;100.00;91060.69;5035489;28;20029;-67
2023/06/29 04:29:05;;;;;;;0.88;0.88;;;;;;;13.88;100.00;91055.72;5035504;28;20042;-67
2023/06/29 04:31:31;;;;;;;2.15;1.00;;;;;;;13.84;100.00;91065.50;5035310;28;20022;-67
2023/06/29 04:34:02;;;;;;;0.80;0.80;;;;;;;13.92;100.00;91056.66;5035155;28;20033;-67
2023/06/29 04:36:28;;;;;;;1.65;1.55;;;;;;;13.98;100.00;91063.38;5035078;28;20025;-67
2023/06/29 04:38:53;;;;;;;0.85;0.85;;;;;;;14.15;100.00;91065.16;5035131;28;20395;-67
2023/06/29 04:41:19;;;;;;;2.47;2.22;;;;;;;14.40;100.00;91066.06;5035002;28;20026;-67
2023/06/29 04:43:51;;;;;;;6.38;5.03;;;;;;;14.58;100.00;91059.47;5034701;28;20529;-67
2023/06/29 04:46:17;;;;;;;7.90;4.47;;;;;;;14.81;100.00;91059.09;5034811;28;20053;-67
2023/06/29 04:48:46;;;;;;;2.05;1.80;;;;;;;14.85;100.00;91068.81;5034985;28;20029;-67
2023/06/29 04:51:13;;;;;;;1.00;1.00;;;;;;;14.98;100.00;91058.91;5035089;28;20415;-67
2023/06/29 04:53:38;;;;;;;2.92;1.50;;;;;;;15.18;100.00;91060.75;5034892;28;20052;-67
2023/06/29 04:56:04;;;;;;;2.35;1.00;;;;;;;15.40;100.00;91061.44;5034690;28;20450;-68
2023/06/29 04:58:30;;;;;;;1.17;1.13;;;;;;;15.59;100.00;91067.06;5034959;28;20025;-68
2023/06/29 05:00:56;;;;;;;2.35;1.65;;;;;;;15.82;100.00;91068.19;5033318;28;20061;-68
2023/06/29 05:03:21;;;;;;;3.58;1.75;;;;;;;15.90;100.00;91069.16;5034499;28;20476;-68
2023/06/29 05:05:47;;;;;;;2.15;1.00;;;;;;;15.78;100.00;91061.13;5034607;28;20036;-67
2023/06/29 05:08:12;;;;;;;1.23;1.13;;;;;;;15.82;100.00;91065.50;5034362;28;20036;-67
2023/06/29 05:10:38;;;;;;;2.55;1.88;;;;;;;15.86;100.00;91068.28;5034475;28;20488;-68
2023/06/29 05:13:03;;;;;;;1.63;1.52;;;;;;;16.28;100.00;91070.69;5034311;28;20121;-68
2023/06/29 05:15:28;;;;;;;1.40;1.30;;;;;;;16.17;100.00;91065.00;5034390;28;20033;-68
2023/06/29 05:17:54;;;;;;;7.18;5.20;;;;;;;15.81;100.00;91063.16;5033348;28;20064;-68
2023/06/29 05:20:20;;;;;;;1.45;1.35;;;;;;;16.41;100.00;91066.81;5032614;28;20068;-68
2023/06/29 05:22:45;;;;;;;1.60;1.50;;;;;;;16.79;100.00;91069.09;5034447;28;20084;-68
2023/06/29 05:25:11;;;;;;;0.80;0.80;;;;;;;16.78;100.00;91075.59;5034444;28;20029;-68
2023/06/29 05:27:36;;;;;;;1.92;1.45;;;;;;;16.80;100.00;91075.25;5034356;28;20030;-68
2023/06/29 05:30:02;;;;;;;0.88;0.88;;;;;;;17.00;100.00;91076.94;5034136;28;20037;-67
2023/06/29 05:32:28;;;;;;;1.42;1.42;;;;;;;16.77;100.00;91079.41;5034177;28;20060;-68
2023/06/29 05:34:53;;;;;;;1.80;1.70;;;;;;;16.49;100.00;91079.34;5033562;28;20042;-68
2023/06/29 05:37:20;;;;;;;1.92;1.83;;;;;;;16.38;100.00;91089.78;5034049;28;20025;-68
2023/06/29 05:39:46;;;;;;;1.10;1.10;;;;;;;15.95;100.00;91082.38;5034032;28;20036;-68
2023/06/29 05:42:11;;;;;;;7.35;1.48;;;;;;;15.97;100.00;91085.50;5033683;28;20026;-68
2023/06/29 05:44:36;;;;;;;1.90;1.80;;;;;;;16.00;100.00;91094.78;5033595;28;20052;-68
2023/06/29 05:47:02;;;;;;;1.52;1.42;;;;;;;15.83;100.00;91093.88;5033688;28;20425;-68
2023/06/29 05:49:27;;;;;;;1.77;1.67;;;;;;;15.96;100.00;91091.19;5033891;28;20025;-69
2023/06/29 05:51:53;;;;;;;4.45;1.27;;;;;;;15.78;100.00;91088.75;5033562;28;20490;-67
2023/06/29 05:54:18;;;;;;;1.10;1.10;;;;;;;17.52;100.00;91087.53;5033695;28;20114;-67
2023/06/29 05:56:43;;;;;;;0.90;0.90;;;;;;;21.82;100.00;91094.22;5033533;28;20029;-67
2023/06/29 05:59:09;;;;;;;1.10;1.10;;;;;;;24.57;89.79;91088.03;5033877;28;20482;-67
2023/06/29 06:01:35;;;;;;;1.13;1.13;;;;;;;25.57;75.65;91095.97;5033536;28;20083;-67
2023/06/29 06:04:02;;;;;;;1.35;1.08;;;;;;;27.72;59.93;91094.53;5033397;28;20495;-68
2023/06/29 06:06:30;;;;;;;1.60;1.50;;;;;;;28.20;52.68;91092.72;5033348;28;20030;-68
2023/06/29 06:08:59;;;;;;;0.90;0.90;;;;;;;27.92;51.07;91104.84;5033288;28;20030;-68
2023/06/29 06:11:24;;;;;;;1.27;1.23;;;;;;;29.30;49.92;91106.59;5033366;28;20034;-68
2023/06/29 06:13:50;;;;;;;1.23;1.13;;;;;;;29.30;48.23;91107.38;5033413;28;20226;-68
2023/06/29 06:16:15;;;;;;;1.50;1.17;;;;;;;29.24;45.79;91106.31;5033194;28;20483;-68
2023/06/29 06:18:41;;;;;;;1.33;1.05;;;;;;;27.43;48.59;91101.50;5033136;28;20029;-68
2023/06/29 06:21:06;;;;;;;0.77;0.77;;;;;;;28.40;46.76;91107.28;5033350;28;20129;-67
2023/06/29 06:23:32;;;;;;;2.95;1.25;;;;;;;31.90;41.92;91115.13;5032964;28;20029;-68
2023/06/29 06:25:57;;;;;;;1.35;1.30;;;;;;;33.67;39.44;91110.00;5033609;28;20075;-68
2023/06/29 06:28:24;;;;;;;10.38;1.85;;;;;;;34.11;38.58;91108.81;5033079;28;20083;-69
2023/06/29 06:30:50;;;;;;;1.00;1.00;;;;;;;33.37;37.15;91106.69;5032406;28;20116;-69
2023/06/29 06:33:16;;;;;;;0.90;0.90;;;;;;;35.51;35.19;91104.16;5032743;28;20108;-68
2023/06/29 06:35:42;;;;;;;5.68;4.85;;;;;;;35.25;36.13;91109.16;5032779;28;20037;-69
2023/06/29 06:38:08;;;;;;;2.70;2.30;;;;;;;34.41;36.47;91103.78;5032780;28;20037;-68
2023/06/29 06:40:33;;;;;;;1.70;1.60;;;;;;;32.31;36.64;91100.56;5031492;28;20030;-68
2023/06/29 06:42:59;;;;;;;0.80;0.80;;;;;;;30.28;40.39;91100.31;5032445;28;20053;-68
2023/06/29 06:45:24;;;;;;;1.42;1.20;;;;;;;30.35;41.05;91097.41;5032616;28;20060;-68
2023/06/29 06:47:49;;;;;;;1.27;1.17;;;;;;;30.57;42.15;91094.94;5032732;28;20029;-68
2023/06/29 06:50:15;;;;;;;1.85;1.33;;;;;;;29.47;41.95;91092.56;5032720;28;20381;-68
2023/06/29 06:52:40;;;;;;;5.43;2.88;;;;;;;27.58;46.92;91094.69;5032615;28;20068;-68
2023/06/29 06:55:06;;;;;;;3.80;2.15;;;;;;;26.89;48.29;91090.38;5032756;28;20030;-68
2023/06/29 06:57:32;;;;;;;0.75;0.75;;;;;;;24.01;53.66;91095.03;5032597;28;20148;-68
2023/06/29 06:59:57;;;;;;;1.98;1.48;;;;;;;28.36;47.27;91092.13;5032734;28;20179;-68
2023/06/29 07:02:23;;;;;;;0.88;0.88;;;;;;;31.16;42.14;91082.91;5032313;28;20029;-68
2023/06/29 07:04:48;;;;;;;1.50;1.42;;;;;;;30.38;42.07;91090.28;5032673;28;20045;-68
2023/06/29 07:07:13;;;;;;;0.90;0.90;;;;;;;29.98;44.32;91082.16;5032319;28;20032;-68
2023/06/29 07:09:40;;;;;;;1.33;1.23;;;;;;;27.66;48.63;91090.72;5032422;28;20052;-67
2023/06/29 07:12:06;;;;;;;1.35;1.25;;;;;;;26.88;49.01;91088.06;5032532;28;20037;-68
2023/06/29 07:14:31;;;;;;;1.33;1.23;;;;;;;29.34;46.33;91093.59;5032171;28;20041;-68
2023/06/29 07:16:57;;;;;;;1.48;1.38;;;;;;;31.49;42.83;91096.59;5032667;28;20032;-67
2023/06/29 07:19:23;;;;;;;0.80;0.80;;;;;;;32.03;41.22;91084.88;5032386;28;20037;-67
2023/06/29 07:21:48;;;;;;;2.15;1.33;;;;;;;32.10;42.10;91090.94;5032327;28;20026;-67
2023/06/29 07:24:14;;;;;;;1.42;1.33;;;;;;;30.23;42.07;91095.34;5032141;28;20034;-68
2023/06/29 07:26:40;;;;;;;2.72;1.40;;;;;;;26.20;51.26;91088.59;5032127;28;20024;-67
2023/06/29 07:29:06;;;;;;;1.00;1.00;;;;;;;23.01;66.58;91097.41;5032294;28;20087;-67
2023/06/29 07:31:31;;;;;;;1.45;1.40;;;;;;;21.60;91.31;91100.56;5032089;28;20025;-67
2023/06/29 07:33:57;;;;;;;2.13;1.38;;;;;;;20.81;100.00;91100.78;5031825;28;20029;-67
2023/06/29 07:36:25;;;;;;;1.05;1.00;;;;;;;20.45;100.00;91100.28;5031981;28;20033;-67
2023/06/29 07:38:51;;;;;;;0.77;0.77;;;;;;;19.79;100.00;91092.69;5031945;28;20415;-67
2023/06/29 07:41:18;;;;;;;1.30;1.20;;;;;;;18.88;100.00;91091.38;5031073;28;20098;-67
2023/06/29 07:43:54;;;;;;;1.30;1.20;;;;;;;18.25;100.00;91086.16;5031677;28;20044;-67
2023/06/29 07:46:20;;;;;;;1.70;1.60;;;;;;;18.02;100.00;91102.19;5032329;28;20038;-67
2023/06/29 07:48:47;;;;;;;1.02;1.02;;;;;;;18.38;100.00;91093.00;5031598;28;20045;-67
2023/06/29 07:51:12;;;;;;;1.65;1.55;;;;;;;20.08;100.00;91094.69;5031722;28;20270;-67
2023/06/29 07:53:37;;;;;;;1.35;1.30;;;;;;;24.00;92.00;91093.47;5031495;28;20037;-67
2023/06/29 07:56:03;;;;;;;2.33;2.13;;;;;;;23.13;79.30;91100.94;5031969;28;20172;-67
2023/06/29 07:58:28;;;;;;;3.75;1.58;;;;;;;21.11;91.82;91095.34;5031729;28;20575;-67
2023/06/29 08:00:55;;;;;;;2.08;1.73;;;;;;;21.26;99.11;91105.22;5031912;28;20037;-67
2023/06/29 08:03:21;;;;;;;1.38;1.30;;;;;;;25.14;76.66;91104.28;5031611;28;20044;-67
2023/06/29 08:05:46;;;;;;;0.80;0.80;;;;;;;26.59;58.78;91101.94;5031641;28;20057;-67
2023/06/29 08:08:12;;;;;;;1.30;1.20;;;;;;;27.19;58.46;91099.84;5031400;28;20415;-67
2023/06/29 08:10:38;;;;;;;1.38;1.27;;;;;;;26.90;56.35;91102.84;5031592;28;20064;-67
2023/06/29 08:13:03;;;;;;;2.45;1.08;;;;;;;24.52;61.98;91106.72;5031454;28;20368;-67
2023/06/29 08:15:29;;;;;;;28.98;16.13;;;;;;;26.04;58.23;91102.75;5031517;28;20497;-67
2023/06/29 08:17:54;;;;;;;2.53;2.33;;;;;;;30.21;49.54;91105.97;5031432;28;20044;-67
2023/06/29 08:20:19;;;;;;;1.70;1.60;;;;;;;30.13;43.79;91101.81;5031468;28;20092;-67
2023/06/29 08:22:47;;;;;;;1.17;1.05;;;;;;;26.82;50.52;91098.63;5031405;28;20034;-67
2023/06/29 08:25:12;;;;;;;0.90;0.90;;;;;;;25.78;53.61;91104.06;5031452;28;20036;-67
2023/06/29 08:27:39;;;;;;;0.82;0.82;;;;;;;27.56;49.98;91102.53;5031858;28;20037;-67
2023/06/29 08:30:05;;;;;;;0.80;0.80;;;;;;;28.82;50.03;91097.63;5031258;28;20423;-67
2023/06/29 08:32:30;;;;;;;1.52;0.85;;;;;;;28.53;45.38;91091.84;5031251;28;20037;-67
2023/06/29 08:34:56;;;;;;;1.27;1.17;;;;;;;27.75;48.97;91085.53;5031423;28;20387;-67
2023/06/29 08:37:21;;;;;;;0.95;0.95;;;;;;;25.09;53.90;91107.44;5031953;28;20033;-67
2023/06/29 08:39:46;;;;;;;2.45;1.77;;;;;;;24.01;56.30;91092.31;5031298;28;20496;-67
2023/06/29 08:42:12;;;;;;;1.40;1.30;;;;;;;22.89;61.32;91091.56;5031168;28;20037;-67
2023/06/29 08:44:38;;;;;;;1.10;1.00;;;;;;;22.32;68.85;91091.94;5031859;28;20053;-67
2023/06/29 08:47:05;;;;;;;1.17;1.13;;;;;;;25.39;59.16;91093.28;5031220;28;20096;-67
2023/06/29 08:49:35;;;;;;;2.05;1.23;;;;;;;26.27;51.22;91091.25;5031307;28;20518;-67
2023/06/29 08:52:03;;;;;;;2.42;1.10;;;;;;;23.68;53.78;91087.22;5031199;28;20034;-68
2023/06/29 08:54:31;;;;;;;6.13;3.35;;;;;;;22.95;63.82;91092.72;5034695;28;20087;-67
2023/06/29 08:56:59;;;;;;;1.27;1.27;;;;;;;22.38;66.93;91079.56;5034779;28;20041;-67
2023/06/29 08:59:26;;;;;;;1.35;1.30;;;;;;;23.86;69.67;91080.66;5034708;28;20540;-67
2023/06/29 09:01:52;;;;;;;0.70;0.70;;;;;;;27.31;54.72;91080.22;5034652;28;20061;-67
2023/06/29 09:04:17;;;;;;;1.27;1.17;;;;;;;30.28;45.90;91074.81;5034629;28;20076;-67
2023/06/29 09:06:42;;;;;;;0.98;0.98;;;;;;;34.01;37.04;91089.84;5034752;28;20034;-67
2023/06/29 09:09:08;;;;;;;0.70;0.70;;;;;;;33.98;37.97;91088.78;5034606;28;20474;-67
2023/06/29 09:11:35;;;;;;;7.32;1.13;;;;;;;31.76;41.22;91088.03;5034532;28;20490;-68
2023/06/29 09:14:08;;;;;;;2.50;2.20;;;;;;;28.14;45.47;91078.75;5034606;28;20111;-67
2023/06/29 09:16:34;;;;;;;1.40;1.30;;;;;;;26.77;48.97;91074.50;5034457;28;20562;-67
2023/06/29 09:19:00;;;;;;;1.08;1.08;;;;;;;24.30;57.59;91073.28;5034337;28;20034;-67
2023/06/29 09:21:28;;;;;;;1.00;1.00;;;;;;;24.85;63.80;91078.28;5034249;28;20037;-67
2023/06/29 09:23:57;;;;;;;2.22;1.60;;;;;;;26.19;53.47;91070.66;5034222;28;20042;-67
2023/06/29 09:26:28;;;;;;;5.82;2.45;;;;;;;25.61;52.75;91074.91;5034371;28;20038;-67
2023/06/29 09:29:00;;;;;;;1.02;1.02;;;;;;;23.38;61.76;91065.78;5034156;28;20037;-68
2023/06/29 09:31:32;;;;;;;0.80;0.80;;;;;;;24.66;60.22;91074.84;5034057;28;20495;-68
2023/06/29 09:34:18;;;;;;;0.80;0.80;;;;;;;27.43;49.06;91060.53;5034394;28;20101;-67
2023/06/29 09:36:44;;;;;;;1.15;1.05;;;;;;;30.27;47.70;91065.81;5034221;28;20029;-67
2023/06/29 09:39:10;;;;;;;1.80;1.45;;;;;;;32.57;42.81;91073.03;5033926;28;20038;-68
2023/06/29 09:41:49;;;;;;;0.95;0.95;;;;;;;31.97;42.33;91059.88;5033966;28;20044;-68
2023/06/29 09:44:19;;;;;;;1.55;1.45;;;;;;;32.58;40.75;91063.56;5033778;28;20033;-67
2023/06/29 09:46:51;;;;;;;0.90;0.90;;;;;;;32.06;42.85;91062.78;5033727;28;20037;-67
2023/06/29 09:49:18;;;;;;;1.42;1.33;;;;;;;32.76;41.25;91055.50;5033763;28;20042;-67
2023/06/29 09:51:44;;;;;;;0.90;0.90;;;;;;;33.48;38.98;91056.66;5032453;28;20516;-67
2023/06/29 09:54:13;;;;;;;1.40;1.30;;;;;;;31.14;41.76;91060.59;5033620;28;20056;-67
2023/06/29 09:56:40;;;;;;;1.60;1.50;;;;;;;28.05;45.15;91057.38;5033940;28;20079;-67
2023/06/29 09:59:09;;;;;;;5.75;1.35;;;;;;;30.51;43.30;91063.72;5033622;28;20096;-67
2023/06/29 10:01:35;;;;;;;2.55;1.55;;;;;;;31.54;42.03;91046.56;5033441;28;20036;-67
2023/06/29 10:04:02;;;;;;;1.40;1.30;;;;;;;28.71;44.72;91042.25;5032815;28;20483;-67
2023/06/29 10:06:45;;;;;;;6.60;1.75;;;;;;;29.96;45.59;91050.81;5033237;28;20554;-67
2023/06/29 10:09:17;;;;;;;1.77;1.43;;;;;;;30.49;42.83;91057.09;5033386;28;20033;-67
2023/06/29 10:11:44;;;;;;;1.33;1.23;;;;;;;31.56;42.93;91038.63;5033326;28;20100;-67
2023/06/29 10:14:13;;;;;;;8.80;1.65;;;;;;;32.64;40.31;91042.50;5033288;28;20040;-68
2023/06/29 10:16:45;;;;;;;1.13;1.10;;;;;;;33.00;40.94;91040.16;5033402;28;20029;-68
2023/06/29 10:19:18;;;;;;;1.38;1.27;;;;;;;34.28;39.05;91045.84;5033184;28;20118;-68
2023/06/29 10:21:45;;;;;;;1.25;1.15;;;;;;;33.55;38.21;91048.13;5033059;28;20545;-68
2023/06/29 10:24:15;;;;;;;1.00;0.90;;;;;;;33.67;38.51;91052.03;5033106;28;20120;-68
2023/06/29 10:26:41;;;;;;;1.30;1.10;;;;;;;35.62;35.75;91038.00;5032979;28;20061;-68
2023/06/29 10:29:07;;;;;;;2.35;1.00;;;;;;;32.35;38.61;91046.19;5033056;28;20045;-68
2023/06/29 10:31:33;;;;;;;4.07;1.10;;;;;;;30.38;41.63;91046.38;5032789;28;20546;-68
2023/06/29 10:33:59;;;;;;;2.15;1.17;;;;;;;30.29;42.15;91043.44;5032975;28;20034;-68
2023/06/29 10:36:24;;;;;;;1.60;1.50;;;;;;;29.45;41.14;91037.38;5032875;28;20058;-68
2023/06/29 10:38:50;;;;;;;3.15;1.58;;;;;;;32.65;41.09;91033.78;5032852;28;20037;-68
2023/06/29 10:41:26;;;;;;;1.50;1.40;;;;;;;32.47;40.52;91031.63;5032887;28;20077;-68
2023/06/29 10:44:05;;;;;;;2.25;1.95;;;;;;;31.22;40.55;91039.19;5032513;28;20090;-68
2023/06/29 10:46:59;;;;;;;0.90;0.90;;;;;;;30.18;43.67;91034.69;5032486;28;20045;-67
2023/06/29 10:49:26;;;;;;;0.80;0.80;;;;;;;30.48;40.73;91020.63;5024047;28;20073;-68
2023/06/29 10:52:09;;;;;;;1.05;0.80;;;;;;;29.93;41.72;91025.03;5032421;28;20530;-68
2023/06/29 10:54:35;;;;;;;1.20;1.10;;;;;;;30.85;40.77;91026.81;5032709;28;20052;-68
2023/06/29 10:57:06;;;;;;;0.80;0.80;;;;;;;29.97;41.40;91028.44;5032491;28;20033;-67
2023/06/29 10:59:33;;;;;;;0.80;0.80;;;;;;;30.67;39.78;91021.75;5032447;28;20041;-67
2023/06/29 11:01:59;;;;;;;0.70;0.70;;;;;;;32.01;40.29;91015.72;5032309;28;20045;-67
2023/06/29 11:04:25;;;;;;;0.80;0.80;;;;;;;30.73;39.18;91009.03;5032733;28;20041;-67
2023/06/29 11:06:50;;;;;;;1.25;1.15;;;;;;;27.84;43.29;91013.16;5032637;28;20029;-67
2023/06/29 11:09:16;;;;;;;0.73;0.73;;;;;;;27.15;44.30;91009.78;5032637;28;20033;-67
2023/06/29 11:11:46;;;;;;;1.48;1.05;;;;;;;29.19;43.77;91008.16;5032246;28;20040;-67
2023/06/29 11:14:12;;;;;;;1.45;1.10;;;;;;;30.61;41.41;91006.97;5032496;28;20045;-67
2023/06/29 11:16:39;;;;;;;1.42;1.25;;;;;;;29.88;41.59;91000.84;5032432;28;20152;-67
2023/06/29 11:19:05;;;;;;;1.48;1.38;;;;;;;30.66;43.06;91006.50;5032330;28;20025;-68
2023/06/29 11:21:30;;;;;;;0.70;0.70;;;;;;;30.74;42.29;91004.31;5032319;28;20025;-68
2023/06/29 11:23:56;;;;;;;1.75;1.65;;;;;;;31.25;40.59;91006.13;5032631;28;20056;-67
2023/06/29 11:26:23;;;;;;;2.05;1.17;;;;;;;29.18;42.60;91014.81;5032025;28;20537;-67